createdAt,value
2022-12-03T00:00:12.934Z,59.01
2022-12-03T00:03:05.188Z,59.29
2022-12-03T00:05:33.634Z,59.31
2022-12-03T00:08:02.015Z,59.42
2022-12-03T00:10:30.447Z,59.74
2022-12-03T00:12:58.690Z,59.53
2022-12-03T00:15:27.088Z,59.73
2022-12-03T00:17:55.412Z,59.45
2022-12-03T00:20:25.148Z,59.24
2022-12-03T00:22:53.472Z,59.48
2022-12-03T00:25:21.799Z,59.60
2022-12-03T00:27:50.148Z,59.95
2022-12-03T00:30:18.856Z,59.91
2022-12-03T00:32:48.303Z,59.97
2022-12-03T00:35:16.881Z,59.94
2022-12-03T00:37:45.851Z,60.00
2022-12-03T00:40:15.280Z,60.01
2022-12-03T00:42:43.560Z,60.16
2022-12-03T00:45:12.959Z,60.19
2022-12-03T00:47:42.408Z,60.64
2022-12-03T00:50:12.108Z,60.95
2022-12-03T00:52:41.039Z,60.94
2022-12-03T00:55:10.401Z,61.34
2022-12-03T00:57:38.994Z,61.35
2022-12-03T01:00:10.109Z,61.04
2022-12-03T01:02:38.402Z,61.13
2022-12-03T01:05:08.755Z,60.78
2022-12-03T01:07:37.101Z,60.75
2022-12-03T01:10:07.549Z,60.93
2022-12-03T01:12:35.902Z,61.05
2022-12-03T01:15:06.223Z,60.95
2022-12-03T01:17:34.915Z,60.84
2022-12-03T01:20:03.644Z,60.80
2022-12-03T01:22:32.466Z,60.91
2022-12-03T01:25:01.641Z,61.03
2022-12-03T01:27:30.415Z,61.13
2022-12-03T01:29:59.045Z,60.99
2022-12-03T01:32:28.120Z,61.02
2022-12-03T01:34:56.829Z,60.82
2022-12-03T01:37:26.524Z,61.03
2022-12-03T01:39:54.800Z,60.96
2022-12-03T01:42:25.403Z,60.88
2022-12-03T01:44:56.538Z,60.68
2022-12-03T01:47:28.274Z,60.79
2022-12-03T01:50:02.359Z,60.55
2022-12-03T01:52:34.008Z,60.81
2022-12-03T01:55:07.338Z,60.57
2022-12-03T01:57:41.529Z,60.62
2022-12-03T02:00:14.806Z,60.58
2022-12-03T02:02:43.943Z,60.57
2022-12-03T02:05:18.215Z,60.72
2022-12-03T02:07:46.517Z,60.75
2022-12-03T02:10:16.737Z,60.70
2022-12-03T02:12:48.817Z,60.81
2022-12-03T02:15:17.402Z,60.92
2022-12-03T02:17:46.221Z,61.37
2022-12-03T02:20:16.147Z,61.47
2022-12-03T02:22:52.491Z,61.52
2022-12-03T02:25:25.052Z,61.07
2022-12-03T02:27:54.928Z,61.26
2022-12-03T02:30:25.832Z,61.27
2022-12-03T02:32:55.377Z,61.40
2022-12-03T02:35:27.206Z,61.55
2022-12-03T02:38:00.548Z,61.57
2022-12-03T02:40:33.491Z,61.65
2022-12-03T02:43:03.531Z,61.81
2022-12-03T02:45:35.892Z,62.18
2022-12-03T02:48:09.040Z,62.33
2022-12-03T02:50:41.058Z,62.30
2022-12-03T02:53:13.648Z,62.47
2022-12-03T02:55:42.795Z,62.61
2022-12-03T02:58:11.605Z,62.52
2022-12-03T03:00:40.371Z,62.77
2022-12-03T03:03:10.243Z,62.65
2022-12-03T03:05:41.420Z,62.67
2022-12-03T03:08:11.267Z,62.67
2022-12-03T03:10:41.790Z,62.85
2022-12-03T03:13:12.113Z,63.10
2022-12-03T03:15:42.059Z,63.32
2022-12-03T03:18:12.385Z,63.26
2022-12-03T03:20:41.408Z,63.00
2022-12-03T03:23:17.020Z,62.95
2022-12-03T03:25:48.925Z,63.03
2022-12-03T03:28:17.791Z,63.02
2022-12-03T03:30:47.143Z,62.81
2022-12-03T03:33:16.328Z,63.28
2022-12-03T03:35:46.035Z,63.14
2022-12-03T03:38:17.302Z,63.38
2022-12-03T03:40:46.419Z,63.53
2022-12-03T03:43:14.837Z,63.55
2022-12-03T03:45:43.925Z,63.59
2022-12-03T03:48:16.007Z,63.57
2022-12-03T03:50:45.642Z,63.49
2022-12-03T03:53:14.958Z,63.52
2022-12-03T03:55:43.675Z,63.45
2022-12-03T03:58:13.838Z,63.37
2022-12-03T04:00:43.819Z,63.68
2022-12-03T04:03:12.525Z,63.52
2022-12-03T04:05:40.969Z,63.56
2022-12-03T04:08:09.325Z,63.78
2022-12-03T04:11:10.687Z,63.74
2022-12-03T04:13:38.967Z,63.77
2022-12-03T04:16:09.139Z,63.72
2022-12-03T04:18:43.609Z,63.87
2022-12-03T04:21:32.035Z,64.08
2022-12-03T04:24:02.407Z,64.02
2022-12-03T04:26:48.878Z,63.85
2022-12-03T04:29:20.550Z,64.15
2022-12-03T04:32:07.069Z,64.06
2022-12-03T04:34:53.702Z,63.88
2022-12-03T04:37:22.351Z,63.73
2022-12-03T04:39:50.604Z,63.85
2022-12-03T04:42:18.982Z,63.76
2022-12-03T04:44:47.210Z,63.78
2022-12-03T04:47:17.672Z,63.77
2022-12-03T04:49:47.743Z,64.01
2022-12-03T04:52:18.739Z,63.81
2022-12-03T04:54:47.033Z,63.92
2022-12-03T04:57:15.484Z,63.65
2022-12-03T04:59:44.177Z,63.68
2022-12-03T05:02:12.662Z,63.63
2022-12-03T05:04:41.095Z,63.72
2022-12-03T05:07:09.341Z,63.65
2022-12-03T05:09:37.748Z,63.53
2022-12-03T05:12:06.866Z,63.31
2022-12-03T05:14:35.187Z,63.04
2022-12-03T05:17:03.587Z,63.11
2022-12-03T05:19:49.943Z,63.19
2022-12-03T05:22:18.185Z,63.15
2022-12-03T05:24:47.393Z,63.19
2022-12-03T05:27:20.213Z,63.32
2022-12-03T05:29:52.396Z,63.58
2022-12-03T05:32:20.997Z,63.55
2022-12-03T05:34:49.368Z,63.67
2022-12-03T05:37:17.820Z,63.44
2022-12-03T05:39:46.194Z,63.32
2022-12-03T05:42:32.937Z,63.80
2022-12-03T05:45:01.171Z,63.79
2022-12-03T05:47:29.677Z,63.80
2022-12-03T05:49:58.054Z,64.08
2022-12-03T05:52:26.374Z,64.21
2022-12-03T05:54:56.051Z,63.96
2022-12-03T05:57:24.673Z,64.26
2022-12-03T05:59:53.352Z,63.97
2022-12-03T06:02:21.751Z,64.04
2022-12-03T06:04:50.951Z,63.83
2022-12-03T06:07:19.399Z,63.62
2022-12-03T06:09:47.742Z,63.67
2022-12-03T06:12:16.068Z,63.68
2022-12-03T06:14:47.385Z,63.58
2022-12-03T06:17:18.505Z,63.66
2022-12-03T06:19:46.889Z,63.85
2022-12-03T06:22:15.278Z,63.78
2022-12-03T06:24:44.122Z,63.56
2022-12-03T06:27:12.620Z,63.26
2022-12-03T06:29:40.949Z,63.70
2022-12-03T06:32:09.745Z,63.72
2022-12-03T06:34:38.142Z,63.69
2022-12-03T06:37:06.442Z,63.39
2022-12-03T06:39:37.002Z,63.93
2022-12-03T06:42:05.921Z,64.27
2022-12-03T06:44:34.246Z,64.09
2022-12-03T06:47:03.073Z,63.86
2022-12-03T06:49:32.359Z,63.93
2022-12-03T06:52:01.357Z,63.83
2022-12-03T06:54:31.288Z,64.09
2022-12-03T06:56:59.781Z,64.16
2022-12-03T06:59:28.939Z,63.85
2022-12-03T07:02:00.731Z,64.13
2022-12-03T07:04:29.554Z,63.96
2022-12-03T07:06:57.854Z,63.80
2022-12-03T07:09:26.143Z,64.35
2022-12-03T07:11:54.508Z,64.03
2022-12-03T07:14:22.860Z,64.05
2022-12-03T07:16:51.146Z,64.06
2022-12-03T07:19:19.357Z,64.06
2022-12-03T07:21:47.694Z,63.97
2022-12-03T07:24:15.982Z,63.99
2022-12-03T07:26:44.213Z,63.80
2022-12-03T07:29:12.858Z,63.79
2022-12-03T07:31:41.101Z,63.69
2022-12-03T07:34:09.415Z,63.69
2022-12-03T07:36:38.146Z,64.00
2022-12-03T07:39:06.414Z,63.86
2022-12-03T07:41:34.761Z,64.13
2022-12-03T07:44:03.110Z,64.09
2022-12-03T07:46:31.854Z,64.20
2022-12-03T07:49:00.268Z,64.00
2022-12-03T07:51:32.115Z,63.97
2022-12-03T07:54:00.817Z,63.88
2022-12-03T07:56:29.047Z,63.99
2022-12-03T07:58:57.387Z,63.91
2022-12-03T08:01:25.885Z,63.88
2022-12-03T08:03:54.201Z,63.85
2022-12-03T08:06:22.494Z,63.75
2022-12-03T08:08:51.215Z,63.62
2022-12-03T08:11:19.510Z,63.78
2022-12-03T08:13:47.807Z,63.70
2022-12-03T08:16:19.046Z,63.39
2022-12-03T08:18:48.935Z,63.77
2022-12-03T08:21:19.650Z,63.71
2022-12-03T08:23:48.015Z,64.01
2022-12-03T08:26:23.785Z,63.75
2022-12-03T08:28:53.014Z,63.80
2022-12-03T08:31:30.913Z,63.61
2022-12-03T08:34:17.127Z,63.65
2022-12-03T08:36:46.623Z,63.85
2022-12-03T08:39:32.638Z,63.92
2022-12-03T08:42:30.144Z,63.76
2022-12-03T08:45:18.167Z,63.75
2022-12-03T08:47:46.822Z,63.51
2022-12-03T08:50:27.707Z,63.80
2022-12-03T08:53:00.118Z,63.96
2022-12-03T08:55:34.294Z,64.32
2022-12-03T08:58:14.382Z,64.23
2022-12-03T09:00:42.855Z,64.36
2022-12-03T09:03:18.230Z,64.43
2022-12-03T09:05:46.539Z,64.45
2022-12-03T09:08:14.813Z,64.49
2022-12-03T09:10:43.585Z,64.56
2022-12-03T09:13:11.818Z,64.63
2022-12-03T09:15:40.150Z,64.82
2022-12-03T09:18:08.481Z,65.21
2022-12-03T09:20:36.726Z,64.94
2022-12-03T09:23:05.222Z,65.02
2022-12-03T09:25:33.683Z,65.20
2022-12-03T09:28:02.828Z,65.10
2022-12-03T09:30:31.251Z,65.11
2022-12-03T09:32:59.721Z,65.02
2022-12-03T09:35:28.293Z,65.28
2022-12-03T09:37:56.715Z,65.33
2022-12-03T09:40:25.121Z,65.07
2022-12-03T09:42:57.948Z,65.33
2022-12-03T09:45:26.355Z,65.34
2022-12-03T09:47:54.992Z,65.62
2022-12-03T09:50:26.143Z,65.41
2022-12-03T09:52:59.968Z,65.73
2022-12-03T09:55:29.594Z,65.91
2022-12-03T09:57:58.455Z,65.67
2022-12-03T10:00:30.221Z,65.36
2022-12-03T10:03:02.176Z,65.55
2022-12-03T10:05:30.897Z,65.94
2022-12-03T10:08:04.232Z,65.90
2022-12-03T10:10:34.790Z,65.74
2022-12-03T10:13:05.179Z,65.79
2022-12-03T10:15:34.371Z,65.64
2022-12-03T10:18:17.979Z,65.80
2022-12-03T10:20:46.990Z,65.89
2022-12-03T10:23:23.579Z,65.68
2022-12-03T10:25:55.109Z,65.97
2022-12-03T10:28:34.820Z,65.81
2022-12-03T10:31:06.495Z,65.85
2022-12-03T10:33:37.346Z,65.97
2022-12-03T10:36:22.666Z,65.56
2022-12-03T10:39:09.277Z,65.51
2022-12-03T10:41:38.232Z,65.91
2022-12-03T10:44:17.815Z,65.99
2022-12-03T10:47:03.726Z,65.61
2022-12-03T10:49:32.158Z,65.79
2022-12-03T10:52:01.441Z,65.73
2022-12-03T10:54:32.296Z,65.84
2022-12-03T10:57:01.474Z,65.52
2022-12-03T10:59:32.598Z,65.35
2022-12-03T11:02:02.521Z,65.39
2022-12-03T11:04:34.704Z,65.41
2022-12-03T11:07:11.743Z,65.31
2022-12-03T11:09:44.181Z,65.12
2022-12-03T11:12:19.414Z,65.22
2022-12-03T11:15:07.011Z,65.02
2022-12-03T11:17:47.191Z,65.36
2022-12-03T11:20:51.693Z,65.43
2022-12-03T11:24:05.187Z,65.29
2022-12-03T11:27:06.160Z,65.10
2022-12-03T11:29:57.707Z,65.08
2022-12-03T11:33:03.322Z,64.99
2022-12-03T11:36:03.835Z,65.37
2022-12-03T11:38:53.640Z,65.11
2022-12-03T11:41:28.814Z,64.88
2022-12-03T11:44:33.071Z,65.24
2022-12-03T11:47:13.851Z,65.48
2022-12-03T11:49:48.902Z,65.39
2022-12-03T11:52:23.707Z,65.75
2022-12-03T11:54:54.756Z,65.61
2022-12-03T11:57:30.238Z,65.54
2022-12-03T12:00:05.455Z,65.31
2022-12-03T12:02:40.319Z,65.28
2022-12-03T12:05:17.123Z,65.25
2022-12-03T12:07:47.554Z,65.66
2022-12-03T12:10:42.674Z,65.43
2022-12-03T12:13:48.914Z,65.61
2022-12-03T12:16:43.151Z,65.43
2022-12-03T12:19:39.316Z,65.65
2022-12-03T12:22:31.219Z,65.94
2022-12-03T12:25:01.246Z,65.47
2022-12-03T12:27:35.765Z,65.45
2022-12-03T12:30:08.643Z,65.59
2022-12-03T12:32:44.979Z,65.97
2022-12-03T12:35:19.299Z,65.62
2022-12-03T12:37:58.603Z,65.63
2022-12-03T12:40:30.683Z,65.80
2022-12-03T12:43:04.164Z,65.93
2022-12-03T12:45:38.839Z,65.93
2022-12-03T12:48:22.055Z,66.22
2022-12-03T12:50:56.942Z,66.16
2022-12-03T12:53:25.911Z,66.06
2022-12-03T12:55:57.777Z,66.13
2022-12-03T12:58:29.775Z,66.27
2022-12-03T13:01:05.819Z,66.31
2022-12-03T13:03:37.559Z,66.54
2022-12-03T13:06:10.834Z,66.39
2022-12-03T13:08:41.791Z,66.17
2022-12-03T13:11:26.608Z,66.33
2022-12-03T13:13:55.326Z,66.90
2022-12-03T13:16:28.031Z,66.93
2022-12-03T13:18:57.470Z,66.49
2022-12-03T13:21:36.180Z,66.65
2022-12-03T13:24:30.200Z,66.40
2022-12-03T13:26:59.866Z,66.46
2022-12-03T13:29:28.655Z,66.87
2022-12-03T13:31:59.914Z,66.74
2022-12-03T13:34:32.948Z,66.42
2022-12-03T13:37:02.535Z,66.68
2022-12-03T13:39:32.860Z,66.62
2022-12-03T13:42:35.043Z,66.46
2022-12-03T13:45:30.959Z,66.68
2022-12-03T13:48:03.857Z,66.67
2022-12-03T13:50:36.309Z,66.70
2022-12-03T13:53:15.573Z,66.70
2022-12-03T13:55:45.762Z,66.58
2022-12-03T13:58:14.120Z,66.53
2022-12-03T14:00:42.475Z,66.77
2022-12-03T14:03:11.104Z,66.50
2022-12-03T14:05:39.370Z,66.28
2022-12-03T14:08:07.760Z,66.57
2022-12-03T14:10:36.102Z,66.23
2022-12-03T14:13:04.679Z,66.47
2022-12-03T14:15:32.924Z,66.83
2022-12-03T14:18:01.738Z,66.84
2022-12-03T14:20:30.288Z,66.94
2022-12-03T14:22:59.674Z,66.73
2022-12-03T14:25:29.276Z,66.63
2022-12-03T14:27:57.512Z,66.73
2022-12-03T14:30:26.065Z,66.48
2022-12-03T14:32:54.389Z,66.53
2022-12-03T14:35:22.658Z,66.68
2022-12-03T14:37:50.917Z,66.60
2022-12-03T14:40:21.773Z,66.84
2022-12-03T14:42:50.539Z,66.72
2022-12-03T14:45:20.166Z,66.81
2022-12-03T14:47:48.370Z,66.63
2022-12-03T14:50:16.902Z,66.72
2022-12-03T14:52:45.207Z,66.58
2022-12-03T14:55:13.701Z,66.72
2022-12-03T14:57:42.575Z,66.36
2022-12-03T15:00:13.001Z,66.46
2022-12-03T15:02:41.393Z,66.58
2022-12-03T15:05:10.761Z,66.63
2022-12-03T15:07:39.139Z,66.62
2022-12-03T15:10:09.221Z,66.63
2022-12-03T15:12:37.549Z,66.78
2022-12-03T15:15:08.402Z,66.97
2022-12-03T15:17:36.627Z,66.94
2022-12-03T15:20:09.685Z,67.05
2022-12-03T15:22:38.196Z,67.08
2022-12-03T15:25:07.960Z,66.97
2022-12-03T15:27:36.234Z,66.91
2022-12-03T15:30:07.799Z,67.02
2022-12-03T15:32:36.129Z,66.99
2022-12-03T15:35:05.560Z,67.13
2022-12-03T15:37:33.901Z,67.05
2022-12-03T15:40:02.351Z,67.13
2022-12-03T15:42:30.910Z,67.09
2022-12-03T15:44:59.301Z,66.99
2022-12-03T15:47:27.826Z,66.95
2022-12-03T15:49:56.368Z,66.85
2022-12-03T15:52:24.979Z,66.95
2022-12-03T15:54:54.511Z,66.70
2022-12-03T15:57:24.814Z,66.96
2022-12-03T15:59:54.092Z,67.13
2022-12-03T16:02:23.459Z,67.10
2022-12-03T16:04:52.132Z,67.06
2022-12-03T16:07:20.511Z,66.96
2022-12-03T16:09:48.901Z,67.05
2022-12-03T16:12:17.222Z,67.18
2022-12-03T16:14:45.587Z,67.23
2022-12-03T16:17:13.916Z,67.11
2022-12-03T16:19:42.472Z,67.07
2022-12-03T16:22:10.894Z,66.96
2022-12-03T16:24:39.249Z,66.93
2022-12-03T16:27:07.955Z,66.99
2022-12-03T16:29:36.382Z,67.23
2022-12-03T16:32:05.176Z,67.19
2022-12-03T16:34:33.953Z,67.46
2022-12-03T16:37:04.141Z,67.50
2022-12-03T16:39:36.455Z,67.22
2022-12-03T16:42:07.985Z,67.49
2022-12-03T16:45:21.902Z,67.38
2022-12-03T16:47:50.314Z,67.42
2022-12-03T16:50:27.392Z,67.33
2022-12-03T16:52:57.739Z,67.21
2022-12-03T16:55:26.126Z,67.22
2022-12-03T16:57:54.619Z,67.35
2022-12-03T17:00:25.193Z,67.17
2022-12-03T17:02:53.690Z,67.40
2022-12-03T17:05:22.729Z,67.56
2022-12-03T17:07:51.144Z,67.52
2022-12-03T17:10:19.662Z,67.47
2022-12-03T17:13:08.846Z,67.39
2022-12-03T17:15:36.804Z,67.70
2022-12-03T17:18:06.121Z,67.62
2022-12-03T17:20:35.072Z,67.85
2022-12-03T17:23:03.980Z,67.72
2022-12-03T17:25:32.304Z,67.63
2022-12-03T17:28:01.055Z,67.57
2022-12-03T17:30:29.735Z,67.64
2022-12-03T17:32:58.036Z,67.88
2022-12-03T17:35:28.024Z,67.61
2022-12-03T17:38:23.662Z,67.61
2022-12-03T17:45:13.905Z,67.93
2022-12-03T17:47:42.413Z,67.87
2022-12-03T17:50:11.757Z,67.99
2022-12-03T17:52:40.398Z,67.94
2022-12-03T17:55:12.947Z,68.01
2022-12-03T17:57:44.546Z,68.14
2022-12-03T18:00:14.235Z,68.43
2022-12-03T18:02:43.348Z,68.61
2022-12-03T18:05:12.823Z,68.45
2022-12-03T18:07:41.670Z,68.57
2022-12-03T18:10:10.387Z,68.56
2022-12-03T18:12:39.015Z,68.60
2022-12-03T18:15:09.351Z,68.63
2022-12-03T18:17:37.960Z,68.80
2022-12-03T18:20:08.329Z,68.65
2022-12-03T18:22:37.429Z,68.44
2022-12-03T18:25:08.939Z,68.34
2022-12-03T18:27:37.427Z,68.43
2022-12-03T18:30:08.129Z,68.73
2022-12-03T18:32:36.545Z,68.54
2022-12-03T18:35:05.803Z,68.62
2022-12-03T18:37:34.458Z,68.72
2022-12-03T18:40:12.467Z,68.75
2022-12-03T18:42:41.687Z,68.50
2022-12-03T18:45:12.612Z,68.68
2022-12-03T18:47:42.948Z,68.64
2022-12-03T18:50:12.630Z,68.80
2022-12-03T18:52:41.215Z,68.69
2022-12-03T18:55:16.561Z,68.73
2022-12-03T18:57:45.172Z,68.69
2022-12-03T19:00:15.903Z,68.64
2022-12-03T19:05:34.540Z,68.68
2022-12-03T19:08:03.552Z,68.60
2022-12-03T19:10:32.401Z,68.58
2022-12-03T19:13:00.693Z,68.79
2022-12-03T19:15:29.088Z,68.92
2022-12-03T19:17:57.554Z,68.87
2022-12-03T19:20:25.919Z,68.76
2022-12-03T19:22:54.260Z,68.85
2022-12-03T19:25:22.696Z,68.92
2022-12-03T19:27:54.428Z,69.06
2022-12-03T19:30:22.912Z,69.13
2022-12-03T19:32:51.280Z,69.32
2022-12-03T19:35:21.167Z,69.06
2022-12-03T19:37:50.004Z,69.09
2022-12-03T19:40:18.671Z,69.09
2022-12-03T19:42:47.460Z,69.17
2022-12-03T19:45:16.150Z,69.36
2022-12-03T19:47:44.593Z,69.38
2022-12-03T19:50:22.381Z,69.21
2022-12-03T19:52:51.753Z,69.29
2022-12-03T19:55:20.237Z,69.37
2022-12-03T19:57:48.629Z,69.64
2022-12-03T20:00:18.106Z,69.96
2022-12-03T20:02:49.577Z,69.91
2022-12-03T20:05:18.440Z,69.99
2022-12-03T20:07:46.933Z,70.06
2022-12-03T20:10:16.094Z,70.12
2022-12-03T20:12:45.147Z,70.22
2022-12-03T20:15:14.403Z,70.40
2022-12-03T20:17:42.865Z,70.17
2022-12-03T20:20:12.261Z,70.39
2022-12-03T20:22:40.803Z,70.26
2022-12-03T20:25:10.449Z,70.44
2022-12-03T20:27:38.845Z,70.52
2022-12-03T20:30:09.070Z,70.94
2022-12-03T20:32:42.136Z,70.82
2022-12-03T20:35:13.537Z,71.11
2022-12-03T20:37:41.990Z,70.95
2022-12-03T20:40:11.675Z,70.78
2022-12-03T20:42:40.074Z,70.95
2022-12-03T20:45:10.399Z,71.08
2022-12-03T20:47:39.215Z,71.04
2022-12-03T20:50:08.834Z,70.91
2022-12-03T20:52:37.380Z,70.86
2022-12-03T20:55:06.916Z,70.90
2022-12-03T20:57:35.334Z,70.89
2022-12-03T21:00:06.220Z,70.70
2022-12-03T21:02:34.866Z,70.69
2022-12-03T21:05:03.656Z,70.22
2022-12-03T21:07:32.177Z,70.56
2022-12-03T21:10:00.659Z,70.47
2022-12-03T21:12:29.252Z,70.56
2022-12-03T21:14:57.542Z,70.47
2022-12-03T21:17:25.953Z,70.60
2022-12-03T21:19:55.141Z,70.47
2022-12-03T21:22:23.639Z,70.82
2022-12-03T21:24:51.891Z,70.61
2022-12-03T21:27:21.989Z,71.03
2022-12-03T21:29:50.987Z,70.93
2022-12-03T21:32:19.332Z,70.85
2022-12-03T21:34:47.812Z,70.66
2022-12-03T21:37:16.602Z,70.64
2022-12-03T21:39:45.056Z,70.44
2022-12-03T21:42:34.114Z,70.36
2022-12-03T21:45:01.927Z,70.66
2022-12-03T21:47:36.662Z,70.59
2022-12-03T21:50:10.532Z,70.61
2022-12-03T21:52:39.008Z,70.71
2022-12-03T21:55:08.856Z,70.80
2022-12-03T21:57:37.774Z,70.88
2022-12-03T22:00:09.673Z,70.80
2022-12-03T22:02:40.840Z,70.74
2022-12-03T22:05:10.869Z,70.83
2022-12-03T22:07:40.185Z,70.53
2022-12-03T22:10:11.345Z,70.52
2022-12-03T22:12:41.200Z,70.33
2022-12-03T22:15:16.574Z,70.50
2022-12-03T22:17:47.449Z,70.38
2022-12-03T22:20:16.447Z,70.74
2022-12-03T22:22:44.738Z,70.67
2022-12-03T22:25:13.031Z,70.97
2022-12-03T22:27:41.366Z,71.01
2022-12-03T22:30:10.682Z,71.14
2022-12-03T22:32:39.288Z,70.79
2022-12-03T22:35:09.027Z,70.82
2022-12-03T22:37:37.359Z,70.84
2022-12-03T22:40:07.714Z,70.79
2022-12-03T22:42:36.183Z,70.78
2022-12-03T22:45:06.952Z,70.88
2022-12-03T22:47:35.263Z,70.86
2022-12-03T22:50:04.343Z,70.97
2022-12-03T22:52:33.318Z,71.10
2022-12-03T22:55:04.498Z,70.87
2022-12-03T22:57:32.904Z,71.02
2022-12-03T23:00:01.307Z,70.84
2022-12-03T23:02:29.657Z,70.63
2022-12-03T23:04:58.013Z,70.74
2022-12-03T23:07:26.374Z,70.80
2022-12-03T23:09:55.107Z,70.90
2022-12-03T23:12:23.872Z,70.74
2022-12-03T23:14:54.529Z,71.04
2022-12-03T23:17:23.187Z,71.38
2022-12-03T23:19:51.895Z,71.65
2022-12-03T23:22:20.611Z,71.70
2022-12-03T23:24:49.515Z,72.23
2022-12-03T23:27:17.996Z,72.32
2022-12-03T23:29:46.859Z,72.30
2022-12-03T23:32:16.441Z,72.23
2022-12-03T23:34:45.293Z,72.24
2022-12-03T23:37:13.816Z,72.36
2022-12-03T23:39:42.091Z,72.03
2022-12-03T23:42:10.792Z,72.35
2022-12-03T23:44:39.553Z,72.19
2022-12-03T23:47:08.265Z,72.42
2022-12-03T23:49:37.168Z,72.54
2022-12-03T23:52:06.978Z,72.85
2022-12-03T23:54:36.954Z,72.65
2022-12-03T23:57:07.878Z,72.86
2022-12-03T23:59:38.543Z,72.83
